sensor_id;sensor_type;location;lat;lon;timestamp;P1;durP1;ratioP1;P2;durP2;ratioP2
15381;SDS011;7789;51.364;12.358;2022-12-07T00:03:31;9.37;;;6.93;;
15381;SDS011;7789;51.364;12.358;2022-12-07T00:08:53;10.53;;;7.00;;
15381;SDS011;7789;51.364;12.358;2022-12-07T00:14:15;10.47;;;8.10;;
15381;SDS011;7789;51.364;12.358;2022-12-07T00:19:39;9.40;;;6.80;;
15381;SDS011;7789;51.364;12.358;2022-12-07T00:25:01;12.30;;;7.80;;
15381;SDS011;7789;51.364;12.358;2022-12-07T00:30:23;12.13;;;7.70;;
15381;SDS011;7789;51.364;12.358;2022-12-07T00:35:46;11.00;;;7.07;;
15381;SDS011;7789;51.364;12.358;2022-12-07T00:41:16;11.67;;;7.67;;
15381;SDS011;7789;51.364;12.358;2022-12-07T00:46:39;10.97;;;7.27;;
15381;SDS011;7789;51.364;12.358;2022-12-07T00:52:02;11.93;;;7.33;;
15381;SDS011;7789;51.364;12.358;2022-12-07T00:57:24;9.97;;;7.30;;
15381;SDS011;7789;51.364;12.358;2022-12-07T01:02:46;9.93;;;7.30;;
15381;SDS011;7789;51.364;12.358;2022-12-07T01:08:09;10.20;;;7.63;;
15381;SDS011;7789;51.364;12.358;2022-12-07T01:13:31;12.20;;;8.63;;
15381;SDS011;7789;51.364;12.358;2022-12-07T01:18:54;11.47;;;8.13;;
15381;SDS011;7789;51.364;12.358;2022-12-07T01:24:18;10.77;;;7.70;;
15381;SDS011;7789;51.364;12.358;2022-12-07T01:29:40;13.07;;;8.77;;
15381;SDS011;7789;51.364;12.358;2022-12-07T01:35:02;12.90;;;8.83;;
15381;SDS011;7789;51.364;12.358;2022-12-07T01:40:25;10.93;;;7.97;;
15381;SDS011;7789;51.364;12.358;2022-12-07T01:45:47;10.67;;;7.63;;
15381;SDS011;7789;51.364;12.358;2022-12-07T01:51:11;10.83;;;8.10;;
15381;SDS011;7789;51.364;12.358;2022-12-07T01:56:37;14.30;;;8.53;;
15381;SDS011;7789;51.364;12.358;2022-12-07T02:02:04;11.67;;;8.47;;
15381;SDS011;7789;51.364;12.358;2022-12-07T02:07:31;12.27;;;8.73;;
15381;SDS011;7789;51.364;12.358;2022-12-07T02:12:59;10.50;;;7.73;;
15381;SDS011;7789;51.364;12.358;2022-12-07T02:18:25;10.53;;;8.03;;
15381;SDS011;7789;51.364;12.358;2022-12-07T02:24:12;12.07;;;7.83;;
15381;SDS011;7789;51.364;12.358;2022-12-07T02:29:38;13.37;;;8.97;;
15381;SDS011;7789;51.364;12.358;2022-12-07T02:35:06;13.23;;;7.87;;
15381;SDS011;7789;51.364;12.358;2022-12-07T02:40:34;11.87;;;7.90;;
15381;SDS011;7789;51.364;12.358;2022-12-07T02:46:01;13.20;;;8.63;;
15381;SDS011;7789;51.364;12.358;2022-12-07T02:51:29;12.37;;;9.00;;
15381;SDS011;7789;51.364;12.358;2022-12-07T02:56:55;12.47;;;8.70;;
15381;SDS011;7789;51.364;12.358;2022-12-07T03:02:24;12.07;;;7.90;;
15381;SDS011;7789;51.364;12.358;2022-12-07T03:07:55;12.70;;;8.43;;
15381;SDS011;7789;51.364;12.358;2022-12-07T03:13:24;13.53;;;8.47;;
15381;SDS011;7789;51.364;12.358;2022-12-07T03:18:53;11.90;;;7.63;;
15381;SDS011;7789;51.364;12.358;2022-12-07T03:24:18;10.07;;;7.30;;
15381;SDS011;7789;51.364;12.358;2022-12-07T03:29:43;9.97;;;6.77;;
15381;SDS011;7789;51.364;12.358;2022-12-07T03:35:11;12.23;;;7.53;;
15381;SDS011;7789;51.364;12.358;2022-12-07T03:40:40;7.57;;;5.90;;
15381;SDS011;7789;51.364;12.358;2022-12-07T03:46:07;8.97;;;6.10;;
15381;SDS011;7789;51.364;12.358;2022-12-07T03:51:43;8.90;;;6.03;;
15381;SDS011;7789;51.364;12.358;2022-12-07T03:57:11;9.23;;;6.63;;
15381;SDS011;7789;51.364;12.358;2022-12-07T04:02:34;9.03;;;6.00;;
15381;SDS011;7789;51.364;12.358;2022-12-07T04:07:59;7.17;;;5.27;;
15381;SDS011;7789;51.364;12.358;2022-12-07T04:13:20;8.70;;;5.90;;
15381;SDS011;7789;51.364;12.358;2022-12-07T04:18:42;8.43;;;6.17;;
15381;SDS011;7789;51.364;12.358;2022-12-07T04:24:05;8.60;;;6.23;;
15381;SDS011;7789;51.364;12.358;2022-12-07T04:29:27;8.37;;;6.00;;
15381;SDS011;7789;51.364;12.358;2022-12-07T04:34:49;6.70;;;5.20;;
15381;SDS011;7789;51.364;12.358;2022-12-07T04:40:16;8.97;;;5.57;;
15381;SDS011;7789;51.364;12.358;2022-12-07T04:45:38;8.37;;;6.30;;
15381;SDS011;7789;51.364;12.358;2022-12-07T04:51:00;8.03;;;6.07;;
15381;SDS011;7789;51.364;12.358;2022-12-07T04:56:25;7.90;;;6.10;;
15381;SDS011;7789;51.364;12.358;2022-12-07T05:01:47;9.20;;;5.87;;
15381;SDS011;7789;51.364;12.358;2022-12-07T05:07:09;7.67;;;5.97;;
15381;SDS011;7789;51.364;12.358;2022-12-07T05:12:32;8.40;;;5.93;;
15381;SDS011;7789;51.364;12.358;2022-12-07T05:17:53;6.27;;;5.33;;
15381;SDS011;7789;51.364;12.358;2022-12-07T05:23:15;7.43;;;6.10;;
15381;SDS011;7789;51.364;12.358;2022-12-07T05:28:38;8.50;;;5.77;;
15381;SDS011;7789;51.364;12.358;2022-12-07T05:34:00;8.27;;;5.80;;
15381;SDS011;7789;51.364;12.358;2022-12-07T05:39:23;9.10;;;6.10;;
15381;SDS011;7789;51.364;12.358;2022-12-07T05:44:46;7.73;;;5.77;;
15381;SDS011;7789;51.364;12.358;2022-12-07T05:50:08;8.13;;;6.53;;
15381;SDS011;7789;51.364;12.358;2022-12-07T05:55:30;8.37;;;6.47;;
15381;SDS011;7789;51.364;12.358;2022-12-07T06:00:55;9.33;;;6.77;;
15381;SDS011;7789;51.364;12.358;2022-12-07T06:06:17;8.73;;;6.80;;
15381;SDS011;7789;51.364;12.358;2022-12-07T06:11:39;9.03;;;7.50;;
15381;SDS011;7789;51.364;12.358;2022-12-07T06:17:20;7.77;;;6.60;;
15381;SDS011;7789;51.364;12.358;2022-12-07T06:22:42;8.70;;;7.33;;
15381;SDS011;7789;51.364;12.358;2022-12-07T06:28:03;10.80;;;8.20;;
15381;SDS011;7789;51.364;12.358;2022-12-07T06:33:27;10.77;;;8.37;;
15381;SDS011;7789;51.364;12.358;2022-12-07T06:38:49;11.60;;;8.93;;
15381;SDS011;7789;51.364;12.358;2022-12-07T06:44:10;9.97;;;8.07;;
15381;SDS011;7789;51.364;12.358;2022-12-07T06:49:34;12.10;;;8.80;;
15381;SDS011;7789;51.364;12.358;2022-12-07T06:54:55;12.97;;;9.50;;
15381;SDS011;7789;51.364;12.358;2022-12-07T07:00:18;11.53;;;9.13;;
15381;SDS011;7789;51.364;12.358;2022-12-07T07:05:43;12.03;;;9.83;;
15381;SDS011;7789;51.364;12.358;2022-12-07T07:11:06;11.37;;;8.87;;
15381;SDS011;7789;51.364;12.358;2022-12-07T07:16:29;12.23;;;9.70;;
15381;SDS011;7789;51.364;12.358;2022-12-07T07:21:52;14.13;;;10.57;;
15381;SDS011;7789;51.364;12.358;2022-12-07T07:27:14;13.37;;;10.47;;
15381;SDS011;7789;51.364;12.358;2022-12-07T07:32:36;13.40;;;10.67;;
15381;SDS011;7789;51.364;12.358;2022-12-07T07:37:59;14.80;;;10.70;;
15381;SDS011;7789;51.364;12.358;2022-12-07T07:43:22;13.73;;;9.53;;
15381;SDS011;7789;51.364;12.358;2022-12-07T07:48:43;12.53;;;10.20;;
15381;SDS011;7789;51.364;12.358;2022-12-07T07:54:07;11.80;;;9.80;;
15381;SDS011;7789;51.364;12.358;2022-12-07T07:59:29;11.40;;;9.37;;
15381;SDS011;7789;51.364;12.358;2022-12-07T08:04:51;12.30;;;9.53;;
15381;SDS011;7789;51.364;12.358;2022-12-07T08:10:15;12.47;;;9.50;;
15381;SDS011;7789;51.364;12.358;2022-12-07T08:15:37;12.13;;;9.13;;
15381;SDS011;7789;51.364;12.358;2022-12-07T08:21:00;14.73;;;10.80;;
15381;SDS011;7789;51.364;12.358;2022-12-07T08:26:23;16.10;;;11.50;;
15381;SDS011;7789;51.364;12.358;2022-12-07T08:31:45;14.33;;;10.10;;
15381;SDS011;7789;51.364;12.358;2022-12-07T08:37:07;13.67;;;9.43;;
15381;SDS011;7789;51.364;12.358;2022-12-07T08:42:30;12.87;;;9.27;;
15381;SDS011;7789;51.364;12.358;2022-12-07T08:47:58;11.53;;;8.47;;
15381;SDS011;7789;51.364;12.358;2022-12-07T08:53:25;13.00;;;8.83;;
15381;SDS011;7789;51.364;12.358;2022-12-07T08:58:48;11.80;;;8.10;;
15381;SDS011;7789;51.364;12.358;2022-12-07T09:04:10;8.07;;;6.87;;
15381;SDS011;7789;51.364;12.358;2022-12-07T09:09:32;9.33;;;7.27;;
15381;SDS011;7789;51.364;12.358;2022-12-07T09:14:56;9.80;;;6.20;;
15381;SDS011;7789;51.364;12.358;2022-12-07T09:20:18;8.87;;;5.97;;
15381;SDS011;7789;51.364;12.358;2022-12-07T09:25:46;9.67;;;5.97;;
15381;SDS011;7789;51.364;12.358;2022-12-07T09:31:10;13.47;;;6.20;;
15381;SDS011;7789;51.364;12.358;2022-12-07T09:36:47;6.00;;;5.37;;
15381;SDS011;7789;51.364;12.358;2022-12-07T09:42:10;10.90;;;6.10;;
15381;SDS011;7789;51.364;12.358;2022-12-07T09:47:49;9.43;;;6.23;;
15381;SDS011;7789;51.364;12.358;2022-12-07T09:53:12;9.07;;;5.87;;
15381;SDS011;7789;51.364;12.358;2022-12-07T09:58:40;7.63;;;5.63;;
15381;SDS011;7789;51.364;12.358;2022-12-07T10:04:09;9.47;;;6.13;;
15381;SDS011;7789;51.364;12.358;2022-12-07T10:09:33;10.23;;;6.07;;
15381;SDS011;7789;51.364;12.358;2022-12-07T10:14:56;8.37;;;6.17;;
15381;SDS011;7789;51.364;12.358;2022-12-07T10:20:29;9.10;;;5.83;;
15381;SDS011;7789;51.364;12.358;2022-12-07T10:25:50;11.23;;;6.10;;
15381;SDS011;7789;51.364;12.358;2022-12-07T10:31:15;11.37;;;6.43;;
15381;SDS011;7789;51.364;12.358;2022-12-07T10:36:41;7.33;;;5.50;;
15381;SDS011;7789;51.364;12.358;2022-12-07T10:42:03;7.43;;;5.90;;
15381;SDS011;7789;51.364;12.358;2022-12-07T10:47:29;9.10;;;5.60;;
15381;SDS011;7789;51.364;12.358;2022-12-07T10:53:12;9.60;;;5.17;;
15381;SDS011;7789;51.364;12.358;2022-12-07T10:58:52;8.00;;;5.10;;
15381;SDS011;7789;51.364;12.358;2022-12-07T11:04:29;6.93;;;4.87;;
15381;SDS011;7789;51.364;12.358;2022-12-07T11:10:03;6.60;;;5.10;;
15381;SDS011;7789;51.364;12.358;2022-12-07T11:15:36;5.17;;;3.63;;
15381;SDS011;7789;51.364;12.358;2022-12-07T11:21:10;4.37;;;3.37;;
15381;SDS011;7789;51.364;12.358;2022-12-07T11:26:50;5.73;;;3.20;;
15381;SDS011;7789;51.364;12.358;2022-12-07T11:32:34;8.40;;;4.63;;
15381;SDS011;7789;51.364;12.358;2022-12-07T11:38:14;5.00;;;4.00;;
15381;SDS011;7789;51.364;12.358;2022-12-07T11:43:52;7.63;;;3.80;;
15381;SDS011;7789;51.364;12.358;2022-12-07T11:49:19;6.53;;;4.50;;
15381;SDS011;7789;51.364;12.358;2022-12-07T11:54:49;5.80;;;4.27;;
15381;SDS011;7789;51.364;12.358;2022-12-07T12:00:16;7.03;;;4.43;;
15381;SDS011;7789;51.364;12.358;2022-12-07T12:05:39;7.23;;;4.67;;
15381;SDS011;7789;51.364;12.358;2022-12-07T12:11:03;7.63;;;4.37;;
15381;SDS011;7789;51.364;12.358;2022-12-07T12:16:52;6.33;;;3.90;;
15381;SDS011;7789;51.364;12.358;2022-12-07T12:22:35;5.40;;;3.17;;
15381;SDS011;7789;51.364;12.358;2022-12-07T12:28:01;5.77;;;3.20;;
15381;SDS011;7789;51.364;12.358;2022-12-07T12:33:26;7.93;;;3.73;;
15381;SDS011;7789;51.364;12.358;2022-12-07T12:38:51;4.53;;;2.97;;
15381;SDS011;7789;51.364;12.358;2022-12-07T12:44:40;4.83;;;2.47;;
15381;SDS011;7789;51.364;12.358;2022-12-07T13:02:08;2.57;;;1.73;;
15381;SDS011;7789;51.364;12.358;2022-12-07T13:13:36;3.23;;;1.93;;
15381;SDS011;7789;51.364;12.358;2022-12-07T13:18:58;5.00;;;1.93;;
15381;SDS011;7789;51.364;12.358;2022-12-07T13:24:21;2.37;;;1.40;;
15381;SDS011;7789;51.364;12.358;2022-12-07T13:29:44;2.20;;;1.40;;
15381;SDS011;7789;51.364;12.358;2022-12-07T13:41:11;4.70;;;1.63;;
15381;SDS011;7789;51.364;12.358;2022-12-07T13:46:40;2.63;;;1.60;;
15381;SDS011;7789;51.364;12.358;2022-12-07T13:52:13;3.13;;;1.50;;
15381;SDS011;7789;51.364;12.358;2022-12-07T13:57:39;2.07;;;1.07;;
15381;SDS011;7789;51.364;12.358;2022-12-07T14:03:02;5.47;;;1.30;;
15381;SDS011;7789;51.364;12.358;2022-12-07T14:08:25;3.27;;;1.30;;
15381;SDS011;7789;51.364;12.358;2022-12-07T14:13:56;4.17;;;2.27;;
15381;SDS011;7789;51.364;12.358;2022-12-07T14:25:20;8.93;;;1.93;;
15381;SDS011;7789;51.364;12.358;2022-12-07T14:30:44;4.23;;;2.17;;
15381;SDS011;7789;51.364;12.358;2022-12-07T14:36:08;1.50;;;1.40;;
15381;SDS011;7789;51.364;12.358;2022-12-07T14:41:30;4.63;;;1.37;;
15381;SDS011;7789;51.364;12.358;2022-12-07T14:47:11;3.60;;;1.40;;
15381;SDS011;7789;51.364;12.358;2022-12-07T14:52:54;10.40;;;7.23;;
15381;SDS011;7789;51.364;12.358;2022-12-07T14:58:37;4.53;;;1.60;;
15381;SDS011;7789;51.364;12.358;2022-12-07T15:04:00;2.43;;;1.60;;
15381;SDS011;7789;51.364;12.358;2022-12-07T15:09:22;3.93;;;1.47;;
15381;SDS011;7789;51.364;12.358;2022-12-07T15:14:44;3.17;;;1.50;;
15381;SDS011;7789;51.364;12.358;2022-12-07T15:20:09;5.47;;;1.37;;
15381;SDS011;7789;51.364;12.358;2022-12-07T15:25:33;3.27;;;1.43;;
15381;SDS011;7789;51.364;12.358;2022-12-07T15:30:56;4.30;;;1.30;;
15381;SDS011;7789;51.364;12.358;2022-12-07T15:36:39;4.20;;;1.40;;
15381;SDS011;7789;51.364;12.358;2022-12-07T15:42:00;3.93;;;1.47;;
15381;SDS011;7789;51.364;12.358;2022-12-07T15:47:22;3.73;;;1.50;;
15381;SDS011;7789;51.364;12.358;2022-12-07T15:52:45;3.37;;;1.63;;
15381;SDS011;7789;51.364;12.358;2022-12-07T15:58:07;6.03;;;2.23;;
15381;SDS011;7789;51.364;12.358;2022-12-07T16:03:29;5.77;;;1.70;;
15381;SDS011;7789;51.364;12.358;2022-12-07T16:08:52;3.97;;;1.40;;
15381;SDS011;7789;51.364;12.358;2022-12-07T16:14:14;4.53;;;1.50;;
15381;SDS011;7789;51.364;12.358;2022-12-07T16:19:38;4.43;;;1.97;;
15381;SDS011;7789;51.364;12.358;2022-12-07T16:25:02;5.10;;;1.90;;
15381;SDS011;7789;51.364;12.358;2022-12-07T16:30:27;3.23;;;1.50;;
15381;SDS011;7789;51.364;12.358;2022-12-07T16:36:00;3.47;;;1.90;;
15381;SDS011;7789;51.364;12.358;2022-12-07T16:41:32;4.93;;;2.57;;
15381;SDS011;7789;51.364;12.358;2022-12-07T16:46:59;5.80;;;2.00;;
15381;SDS011;7789;51.364;12.358;2022-12-07T16:52:23;4.43;;;2.17;;
15381;SDS011;7789;51.364;12.358;2022-12-07T16:57:51;8.07;;;2.73;;
15381;SDS011;7789;51.364;12.358;2022-12-07T17:03:29;7.07;;;2.33;;
15381;SDS011;7789;51.364;12.358;2022-12-07T17:08:57;5.37;;;2.27;;
15381;SDS011;7789;51.364;12.358;2022-12-07T17:14:23;5.57;;;2.10;;
15381;SDS011;7789;51.364;12.358;2022-12-07T17:20:08;4.97;;;2.43;;
15381;SDS011;7789;51.364;12.358;2022-12-07T17:25:42;5.43;;;2.63;;
15381;SDS011;7789;51.364;12.358;2022-12-07T17:31:11;7.40;;;2.63;;
15381;SDS011;7789;51.364;12.358;2022-12-07T17:36:36;7.73;;;3.00;;
15381;SDS011;7789;51.364;12.358;2022-12-07T17:42:07;4.60;;;2.93;;
15381;SDS011;7789;51.364;12.358;2022-12-07T17:47:50;4.30;;;2.57;;
15381;SDS011;7789;51.364;12.358;2022-12-07T17:53:20;6.00;;;2.60;;
15381;SDS011;7789;51.364;12.358;2022-12-07T17:58:49;7.57;;;2.63;;
15381;SDS011;7789;51.364;12.358;2022-12-07T18:04:16;4.10;;;2.27;;
15381;SDS011;7789;51.364;12.358;2022-12-07T18:09:41;6.27;;;2.67;;
15381;SDS011;7789;51.364;12.358;2022-12-07T18:15:16;5.63;;;2.97;;
15381;SDS011;7789;51.364;12.358;2022-12-07T18:21:00;6.63;;;3.13;;
15381;SDS011;7789;51.364;12.358;2022-12-07T18:26:30;5.40;;;3.10;;
15381;SDS011;7789;51.364;12.358;2022-12-07T18:38:08;8.83;;;4.67;;
15381;SDS011;7789;51.364;12.358;2022-12-07T18:43:37;10.37;;;2.70;;
15381;SDS011;7789;51.364;12.358;2022-12-07T18:49:05;6.40;;;2.60;;
15381;SDS011;7789;51.364;12.358;2022-12-07T19:00:13;6.40;;;2.50;;
15381;SDS011;7789;51.364;12.358;2022-12-07T19:05:37;5.40;;;2.97;;
15381;SDS011;7789;51.364;12.358;2022-12-07T19:11:11;4.40;;;2.47;;
15381;SDS011;7789;51.364;12.358;2022-12-07T19:16:59;6.53;;;3.40;;
15381;SDS011;7789;51.364;12.358;2022-12-07T19:22:40;5.50;;;2.73;;
15381;SDS011;7789;51.364;12.358;2022-12-07T19:28:11;4.63;;;2.23;;
15381;SDS011;7789;51.364;12.358;2022-12-07T19:33:37;5.47;;;2.40;;
15381;SDS011;7789;51.364;12.358;2022-12-07T19:39:00;5.07;;;2.70;;
15381;SDS011;7789;51.364;12.358;2022-12-07T19:44:36;6.13;;;2.73;;
15381;SDS011;7789;51.364;12.358;2022-12-07T19:50:09;4.00;;;2.40;;
15381;SDS011;7789;51.364;12.358;2022-12-07T19:55:32;7.23;;;3.07;;
15381;SDS011;7789;51.364;12.358;2022-12-07T20:01:07;6.27;;;3.43;;
15381;SDS011;7789;51.364;12.358;2022-12-07T20:06:32;8.50;;;3.33;;
15381;SDS011;7789;51.364;12.358;2022-12-07T20:12:07;6.27;;;3.10;;
15381;SDS011;7789;51.364;12.358;2022-12-07T20:17:55;5.30;;;3.07;;
15381;SDS011;7789;51.364;12.358;2022-12-07T20:23:30;5.50;;;2.90;;
15381;SDS011;7789;51.364;12.358;2022-12-07T20:28:54;10.93;;;3.20;;
15381;SDS011;7789;51.364;12.358;2022-12-07T20:34:33;5.23;;;2.87;;
15381;SDS011;7789;51.364;12.358;2022-12-07T20:40:12;6.07;;;3.20;;
15381;SDS011;7789;51.364;12.358;2022-12-07T20:45:36;6.93;;;3.20;;
15381;SDS011;7789;51.364;12.358;2022-12-07T20:51:09;10.57;;;3.63;;
15381;SDS011;7789;51.364;12.358;2022-12-07T20:56:42;4.57;;;3.20;;
15381;SDS011;7789;51.364;12.358;2022-12-07T21:02:05;5.67;;;3.07;;
15381;SDS011;7789;51.364;12.358;2022-12-07T21:07:39;7.37;;;2.87;;
15381;SDS011;7789;51.364;12.358;2022-12-07T21:13:03;6.03;;;2.90;;
15381;SDS011;7789;51.364;12.358;2022-12-07T21:18:29;10.53;;;3.53;;
15381;SDS011;7789;51.364;12.358;2022-12-07T21:23:57;8.53;;;3.60;;
15381;SDS011;7789;51.364;12.358;2022-12-07T21:29:31;5.03;;;3.27;;
15381;SDS011;7789;51.364;12.358;2022-12-07T21:35:04;4.43;;;2.90;;
15381;SDS011;7789;51.364;12.358;2022-12-07T21:40:32;6.33;;;2.83;;
15381;SDS011;7789;51.364;12.358;2022-12-07T21:45:56;7.37;;;3.57;;
15381;SDS011;7789;51.364;12.358;2022-12-07T21:51:26;6.30;;;3.20;;
15381;SDS011;7789;51.364;12.358;2022-12-07T21:56:55;7.53;;;2.93;;
15381;SDS011;7789;51.364;12.358;2022-12-07T22:02:21;5.17;;;3.10;;
15381;SDS011;7789;51.364;12.358;2022-12-07T22:07:48;8.90;;;3.13;;
15381;SDS011;7789;51.364;12.358;2022-12-07T22:13:14;5.77;;;2.90;;
15381;SDS011;7789;51.364;12.358;2022-12-07T22:18:37;6.57;;;2.90;;
15381;SDS011;7789;51.364;12.358;2022-12-07T22:24:04;6.63;;;3.40;;
15381;SDS011;7789;51.364;12.358;2022-12-07T22:29:35;5.90;;;3.30;;
15381;SDS011;7789;51.364;12.358;2022-12-07T22:35:00;8.80;;;3.70;;
15381;SDS011;7789;51.364;12.358;2022-12-07T22:40:31;7.33;;;3.37;;
15381;SDS011;7789;51.364;12.358;2022-12-07T22:45:56;7.60;;;3.33;;
15381;SDS011;7789;51.364;12.358;2022-12-07T22:51:24;5.77;;;3.60;;
15381;SDS011;7789;51.364;12.358;2022-12-07T22:56:58;5.80;;;3.50;;
15381;SDS011;7789;51.364;12.358;2022-12-07T23:02:24;5.43;;;3.83;;
15381;SDS011;7789;51.364;12.358;2022-12-07T23:07:50;5.40;;;3.33;;
15381;SDS011;7789;51.364;12.358;2022-12-07T23:13:15;4.73;;;3.23;;
15381;SDS011;7789;51.364;12.358;2022-12-07T23:18:59;4.90;;;3.00;;
15381;SDS011;7789;51.364;12.358;2022-12-07T23:24:29;8.23;;;3.60;;
15381;SDS011;7789;51.364;12.358;2022-12-07T23:29:55;6.70;;;3.87;;
15381;SDS011;7789;51.364;12.358;2022-12-07T23:35:22;7.40;;;3.43;;
15381;SDS011;7789;51.364;12.358;2022-12-07T23:40:46;5.87;;;3.60;;
15381;SDS011;7789;51.364;12.358;2022-12-07T23:46:14;7.23;;;3.73;;
15381;SDS011;7789;51.364;12.358;2022-12-07T23:51:42;5.03;;;3.30;;
15381;SDS011;7789;51.364;12.358;2022-12-07T23:57:08;7.70;;;3.87;;
